Aars, Denmark
Current Conditions -  °F | °C
As of 12:50 PM on Friday 24 Oct 2014 (Local Time) from EKYT Reporting Station
Light Rain Light Rain  
Wind Chill: 57°   Ceiling: 1100
Heat Index: 57°   Visibility: 6mi
Dew Point: 54°   Wind: 20mph
Humidity: 88%   Direction: 190°S
Pressure: 29.94"   Gusts: NA
Location:  56.8°N, 9.51°E
Report Text: EKYT 241050Z 19017KT 9999 -RA FEW009 BKN011 14/12 Q1014
Loading
Personal Weather Stations






























Interactive Weather Map
Tropical Storm Tracking
New forecast layout! Learn more

10-Day Weather Forecast

Advertisements
Track Severe Weather on mobile